sensor_id;sensor_type;location;lat;lon;timestamp;temperature;humidity
30280;DHT22;17097;50.916;5.344;2023-12-29T00:00:03;11.70;99.90
30280;DHT22;17097;50.916;5.344;2023-12-29T00:02:31;11.70;99.90
30280;DHT22;17097;50.916;5.344;2023-12-29T00:04:59;11.70;99.90
30280;DHT22;17097;50.916;5.344;2023-12-29T00:07:25;11.70;99.90
30280;DHT22;17097;50.916;5.344;2023-12-29T00:09:51;11.70;99.90
30280;DHT22;17097;50.916;5.344;2023-12-29T00:12:19;11.70;99.90
30280;DHT22;17097;50.916;5.344;2023-12-29T00:14:44;11.80;99.90
30280;DHT22;17097;50.916;5.344;2023-12-29T00:17:10;11.80;99.90
30280;DHT22;17097;50.916;5.344;2023-12-29T00:19:35;11.80;99.90
30280;DHT22;17097;50.916;5.344;2023-12-29T00:22:01;11.60;99.90
30280;DHT22;17097;50.916;5.344;2023-12-29T00:24:31;11.60;99.90
30280;DHT22;17097;50.916;5.344;2023-12-29T00:26:59;11.70;99.90
30280;DHT22;17097;50.916;5.344;2023-12-29T00:29:27;11.60;99.90
30280;DHT22;17097;50.916;5.344;2023-12-29T00:32:00;11.70;99.90
30280;DHT22;17097;50.916;5.344;2023-12-29T00:34:27;11.70;99.90
30280;DHT22;17097;50.916;5.344;2023-12-29T00:36:55;11.60;99.90
30280;DHT22;17097;50.916;5.344;2023-12-29T00:39:21;11.60;99.90
30280;DHT22;17097;50.916;5.344;2023-12-29T00:41:54;11.60;99.90
30280;DHT22;17097;50.916;5.344;2023-12-29T00:44:20;11.60;99.90
30280;DHT22;17097;50.916;5.344;2023-12-29T00:46:46;11.70;99.90
30280;DHT22;17097;50.916;5.344;2023-12-29T00:49:14;11.70;99.90
30280;DHT22;17097;50.916;5.344;2023-12-29T00:51:43;11.70;99.90
30280;DHT22;17097;50.916;5.344;2023-12-29T00:54:11;11.70;99.90
30280;DHT22;17097;50.916;5.344;2023-12-29T00:56:37;11.60;99.90
30280;DHT22;17097;50.916;5.344;2023-12-29T00:59:05;11.60;99.90
30280;DHT22;17097;50.916;5.344;2023-12-29T01:01:34;11.60;99.90
30280;DHT22;17097;50.916;5.344;2023-12-29T01:04:02;11.60;99.90
30280;DHT22;17097;50.916;5.344;2023-12-29T01:06:28;11.60;99.90
30280;DHT22;17097;50.916;5.344;2023-12-29T01:08:54;11.60;99.90
30280;DHT22;17097;50.916;5.344;2023-12-29T01:11:22;11.60;99.90
30280;DHT22;17097;50.916;5.344;2023-12-29T01:13:50;11.50;99.90
30280;DHT22;17097;50.916;5.344;2023-12-29T01:16:16;11.50;99.90
30280;DHT22;17097;50.916;5.344;2023-12-29T01:18:44;11.60;99.90
30280;DHT22;17097;50.916;5.344;2023-12-29T01:21:12;11.60;99.90
30280;DHT22;17097;50.916;5.344;2023-12-29T01:23:37;11.60;99.90
30280;DHT22;17097;50.916;5.344;2023-12-29T01:26:07;11.60;99.90
30280;DHT22;17097;50.916;5.344;2023-12-29T01:28:33;11.50;99.90
30280;DHT22;17097;50.916;5.344;2023-12-29T01:31:01;11.50;99.90
30280;DHT22;17097;50.916;5.344;2023-12-29T01:33:27;11.50;99.90
30280;DHT22;17097;50.916;5.344;2023-12-29T01:35:53;11.50;99.90
30280;DHT22;17097;50.916;5.344;2023-12-29T01:38:18;11.50;99.90
30280;DHT22;17097;50.916;5.344;2023-12-29T01:40:45;11.50;99.90
30280;DHT22;17097;50.916;5.344;2023-12-29T01:43:15;11.50;99.90
30280;DHT22;17097;50.916;5.344;2023-12-29T01:45:43;11.40;99.90
30280;DHT22;17097;50.916;5.344;2023-12-29T01:48:09;11.50;99.90
30280;DHT22;17097;50.916;5.344;2023-12-29T01:50:37;11.50;99.90
30280;DHT22;17097;50.916;5.344;2023-12-29T01:53:03;11.50;99.90
30280;DHT22;17097;50.916;5.344;2023-12-29T01:55:31;11.50;99.90
30280;DHT22;17097;50.916;5.344;2023-12-29T01:57:57;11.50;99.90
30280;DHT22;17097;50.916;5.344;2023-12-29T02:00:26;11.60;99.90
30280;DHT22;17097;50.916;5.344;2023-12-29T02:02:52;11.60;99.90
30280;DHT22;17097;50.916;5.344;2023-12-29T02:05:20;11.50;99.90
30280;DHT22;17097;50.916;5.344;2023-12-29T02:07:54;11.60;99.90
30280;DHT22;17097;50.916;5.344;2023-12-29T02:10:19;11.60;99.90
30280;DHT22;17097;50.916;5.344;2023-12-29T02:12:50;11.50;99.90
30280;DHT22;17097;50.916;5.344;2023-12-29T02:15:15;11.60;99.90
30280;DHT22;17097;50.916;5.344;2023-12-29T02:17:59;11.60;99.90
30280;DHT22;17097;50.916;5.344;2023-12-29T02:20:26;11.50;99.90
30280;DHT22;17097;50.916;5.344;2023-12-29T02:22:52;11.60;99.90
30280;DHT22;17097;50.916;5.344;2023-12-29T02:25:18;11.60;99.90
30280;DHT22;17097;50.916;5.344;2023-12-29T02:27:51;11.60;99.90
30280;DHT22;17097;50.916;5.344;2023-12-29T02:30:24;11.60;99.90
30280;DHT22;17097;50.916;5.344;2023-12-29T02:32:55;11.60;99.90
30280;DHT22;17097;50.916;5.344;2023-12-29T02:35:24;11.50;99.90
30280;DHT22;17097;50.916;5.344;2023-12-29T02:37:58;11.50;99.90
30280;DHT22;17097;50.916;5.344;2023-12-29T02:40:25;11.50;99.90
30280;DHT22;17097;50.916;5.344;2023-12-29T02:42:53;11.40;99.90
30280;DHT22;17097;50.916;5.344;2023-12-29T02:45:21;11.50;99.90
30280;DHT22;17097;50.916;5.344;2023-12-29T02:47:48;11.40;99.90
30280;DHT22;17097;50.916;5.344;2023-12-29T02:50:16;11.40;99.90
30280;DHT22;17097;50.916;5.344;2023-12-29T02:52:42;11.50;99.90
30280;DHT22;17097;50.916;5.344;2023-12-29T02:55:08;11.50;99.90
30280;DHT22;17097;50.916;5.344;2023-12-29T02:57:33;11.40;99.90
30280;DHT22;17097;50.916;5.344;2023-12-29T02:59:59;11.40;99.90
30280;DHT22;17097;50.916;5.344;2023-12-29T03:02:24;11.40;99.90
30280;DHT22;17097;50.916;5.344;2023-12-29T03:04:50;11.50;99.90
30280;DHT22;17097;50.916;5.344;2023-12-29T03:07:16;11.50;99.90
30280;DHT22;17097;50.916;5.344;2023-12-29T03:09:42;11.50;99.90
30280;DHT22;17097;50.916;5.344;2023-12-29T03:12:08;11.50;99.90
30280;DHT22;17097;50.916;5.344;2023-12-29T03:14:36;11.50;99.90
30280;DHT22;17097;50.916;5.344;2023-12-29T03:17:01;11.60;99.90
30280;DHT22;17097;50.916;5.344;2023-12-29T03:19:27;11.60;99.90
30280;DHT22;17097;50.916;5.344;2023-12-29T03:21:52;11.60;99.90
30280;DHT22;17097;50.916;5.344;2023-12-29T03:24:19;11.60;99.90
30280;DHT22;17097;50.916;5.344;2023-12-29T03:26:50;11.60;99.90
30280;DHT22;17097;50.916;5.344;2023-12-29T03:29:15;11.50;99.90
30280;DHT22;17097;50.916;5.344;2023-12-29T03:31:41;11.60;99.90
30280;DHT22;17097;50.916;5.344;2023-12-29T03:34:09;11.70;99.90
30280;DHT22;17097;50.916;5.344;2023-12-29T03:36:37;11.60;99.90
30280;DHT22;17097;50.916;5.344;2023-12-29T03:39:05;11.60;99.90
30280;DHT22;17097;50.916;5.344;2023-12-29T03:41:31;11.60;99.90
30280;DHT22;17097;50.916;5.344;2023-12-29T03:43:59;11.60;99.90
30280;DHT22;17097;50.916;5.344;2023-12-29T03:46:25;11.60;99.90
30280;DHT22;17097;50.916;5.344;2023-12-29T03:48:53;11.50;99.90
30280;DHT22;17097;50.916;5.344;2023-12-29T03:51:19;11.60;99.90
30280;DHT22;17097;50.916;5.344;2023-12-29T03:53:47;11.60;99.90
30280;DHT22;17097;50.916;5.344;2023-12-29T03:56:15;11.70;99.90
30280;DHT22;17097;50.916;5.344;2023-12-29T03:58:45;11.60;99.90
30280;DHT22;17097;50.916;5.344;2023-12-29T04:01:11;11.60;99.90
30280;DHT22;17097;50.916;5.344;2023-12-29T04:03:40;11.60;99.90
30280;DHT22;17097;50.916;5.344;2023-12-29T04:06:07;11.50;99.90
30280;DHT22;17097;50.916;5.344;2023-12-29T04:08:36;11.60;99.90
30280;DHT22;17097;50.916;5.344;2023-12-29T04:11:03;11.60;99.90
30280;DHT22;17097;50.916;5.344;2023-12-29T04:13:31;11.60;99.90
30280;DHT22;17097;50.916;5.344;2023-12-29T04:15:57;11.70;99.90
30280;DHT22;17097;50.916;5.344;2023-12-29T04:18:24;11.70;99.90
30280;DHT22;17097;50.916;5.344;2023-12-29T04:20:50;11.70;99.90
30280;DHT22;17097;50.916;5.344;2023-12-29T04:23:15;11.80;99.90
30280;DHT22;17097;50.916;5.344;2023-12-29T04:25:44;11.70;99.90
30280;DHT22;17097;50.916;5.344;2023-12-29T04:28:09;11.70;99.90
30280;DHT22;17097;50.916;5.344;2023-12-29T04:30:37;11.60;99.90
30280;DHT22;17097;50.916;5.344;2023-12-29T04:33:03;11.60;99.90
30280;DHT22;17097;50.916;5.344;2023-12-29T04:35:29;11.70;99.90
30280;DHT22;17097;50.916;5.344;2023-12-29T04:37:54;11.60;99.90
30280;DHT22;17097;50.916;5.344;2023-12-29T04:40:20;11.60;99.90
30280;DHT22;17097;50.916;5.344;2023-12-29T04:42:46;11.60;99.90
30280;DHT22;17097;50.916;5.344;2023-12-29T04:45:12;11.60;99.90
30280;DHT22;17097;50.916;5.344;2023-12-29T04:47:38;11.60;99.90
30280;DHT22;17097;50.916;5.344;2023-12-29T04:50:06;11.60;99.90
30280;DHT22;17097;50.916;5.344;2023-12-29T04:52:32;11.60;99.90
30280;DHT22;17097;50.916;5.344;2023-12-29T04:54:58;11.50;99.90
30280;DHT22;17097;50.916;5.344;2023-12-29T04:57:24;11.40;99.90
30280;DHT22;17097;50.916;5.344;2023-12-29T04:59:49;11.40;99.90
30280;DHT22;17097;50.916;5.344;2023-12-29T05:02:15;11.30;99.90
30280;DHT22;17097;50.916;5.344;2023-12-29T05:04:40;11.30;99.90
30280;DHT22;17097;50.916;5.344;2023-12-29T05:07:09;11.30;99.90
30280;DHT22;17097;50.916;5.344;2023-12-29T05:09:35;11.40;99.90
30280;DHT22;17097;50.916;5.344;2023-12-29T05:12:00;11.50;99.90
30280;DHT22;17097;50.916;5.344;2023-12-29T05:14:26;11.50;99.90
30280;DHT22;17097;50.916;5.344;2023-12-29T05:16:51;11.40;99.90
30280;DHT22;17097;50.916;5.344;2023-12-29T05:19:17;11.40;99.90
30280;DHT22;17097;50.916;5.344;2023-12-29T05:21:45;11.40;99.90
30280;DHT22;17097;50.916;5.344;2023-12-29T05:24:15;11.40;99.90
30280;DHT22;17097;50.916;5.344;2023-12-29T05:26:40;11.30;99.90
30280;DHT22;17097;50.916;5.344;2023-12-29T05:29:06;11.30;99.90
30280;DHT22;17097;50.916;5.344;2023-12-29T05:31:31;11.20;99.90
30280;DHT22;17097;50.916;5.344;2023-12-29T05:33:57;11.30;99.90
30280;DHT22;17097;50.916;5.344;2023-12-29T05:36:23;11.30;99.90
30280;DHT22;17097;50.916;5.344;2023-12-29T05:38:48;11.30;99.90
30280;DHT22;17097;50.916;5.344;2023-12-29T05:41:16;11.30;99.90
30280;DHT22;17097;50.916;5.344;2023-12-29T05:43:42;11.40;99.90
30280;DHT22;17097;50.916;5.344;2023-12-29T05:46:11;11.50;99.90
30280;DHT22;17097;50.916;5.344;2023-12-29T05:48:37;11.30;99.90
30280;DHT22;17097;50.916;5.344;2023-12-29T05:51:09;11.40;99.90
30280;DHT22;17097;50.916;5.344;2023-12-29T05:53:40;11.50;99.90
30280;DHT22;17097;50.916;5.344;2023-12-29T05:56:06;11.50;99.90
30280;DHT22;17097;50.916;5.344;2023-12-29T05:58:31;11.60;99.90
30280;DHT22;17097;50.916;5.344;2023-12-29T06:00:57;11.50;99.90
30280;DHT22;17097;50.916;5.344;2023-12-29T06:03:24;11.50;99.90
30280;DHT22;17097;50.916;5.344;2023-12-29T06:05:50;11.40;99.90
30280;DHT22;17097;50.916;5.344;2023-12-29T06:08:15;11.40;99.90
30280;DHT22;17097;50.916;5.344;2023-12-29T06:10:41;11.50;99.90
30280;DHT22;17097;50.916;5.344;2023-12-29T06:13:07;11.50;99.90
30280;DHT22;17097;50.916;5.344;2023-12-29T06:15:32;11.40;99.90
30280;DHT22;17097;50.916;5.344;2023-12-29T06:18:00;11.40;99.90
30280;DHT22;17097;50.916;5.344;2023-12-29T06:20:26;11.40;99.90
30280;DHT22;17097;50.916;5.344;2023-12-29T06:22:52;11.40;99.90
30280;DHT22;17097;50.916;5.344;2023-12-29T06:25:20;11.50;99.90
30280;DHT22;17097;50.916;5.344;2023-12-29T06:27:45;11.50;99.90
30280;DHT22;17097;50.916;5.344;2023-12-29T06:30:11;11.40;99.90
30280;DHT22;17097;50.916;5.344;2023-12-29T06:32:37;11.40;99.90
30280;DHT22;17097;50.916;5.344;2023-12-29T06:35:04;11.40;99.90
30280;DHT22;17097;50.916;5.344;2023-12-29T06:37:30;11.50;99.90
30280;DHT22;17097;50.916;5.344;2023-12-29T06:40:01;11.50;99.90
30280;DHT22;17097;50.916;5.344;2023-12-29T06:42:29;11.50;99.90
30280;DHT22;17097;50.916;5.344;2023-12-29T06:44:55;11.50;99.90
30280;DHT22;17097;50.916;5.344;2023-12-29T06:47:25;11.50;99.90
30280;DHT22;17097;50.916;5.344;2023-12-29T06:49:51;11.50;99.90
30280;DHT22;17097;50.916;5.344;2023-12-29T06:52:19;11.60;99.90
30280;DHT22;17097;50.916;5.344;2023-12-29T06:54:45;11.60;99.90
30280;DHT22;17097;50.916;5.344;2023-12-29T06:57:13;11.50;99.90
30280;DHT22;17097;50.916;5.344;2023-12-29T06:59:40;11.60;99.90
30280;DHT22;17097;50.916;5.344;2023-12-29T07:02:06;11.50;99.90
30280;DHT22;17097;50.916;5.344;2023-12-29T07:04:34;11.50;99.90
30280;DHT22;17097;50.916;5.344;2023-12-29T07:07:02;11.40;99.90
30280;DHT22;17097;50.916;5.344;2023-12-29T07:09:28;11.40;99.90
30280;DHT22;17097;50.916;5.344;2023-12-29T07:11:56;11.40;99.90
30280;DHT22;17097;50.916;5.344;2023-12-29T07:14:24;11.20;99.90
30280;DHT22;17097;50.916;5.344;2023-12-29T07:16:49;11.10;99.90
30280;DHT22;17097;50.916;5.344;2023-12-29T07:19:15;11.10;99.90
30280;DHT22;17097;50.916;5.344;2023-12-29T07:21:41;11.10;99.90
30280;DHT22;17097;50.916;5.344;2023-12-29T07:24:08;11.20;99.90
30280;DHT22;17097;50.916;5.344;2023-12-29T07:26:35;11.20;99.90
30280;DHT22;17097;50.916;5.344;2023-12-29T07:29:00;11.20;99.90
30280;DHT22;17097;50.916;5.344;2023-12-29T07:31:28;11.20;99.90
30280;DHT22;17097;50.916;5.344;2023-12-29T07:33:58;11.10;99.90
30280;DHT22;17097;50.916;5.344;2023-12-29T07:36:24;11.10;99.90
30280;DHT22;17097;50.916;5.344;2023-12-29T07:38:50;11.20;99.90
30280;DHT22;17097;50.916;5.344;2023-12-29T07:41:15;10.90;99.90
30280;DHT22;17097;50.916;5.344;2023-12-29T07:43:46;10.80;99.90
30280;DHT22;17097;50.916;5.344;2023-12-29T07:46:11;11.00;99.90
30280;DHT22;17097;50.916;5.344;2023-12-29T07:48:39;11.00;99.90
30280;DHT22;17097;50.916;5.344;2023-12-29T07:51:06;11.00;99.90
30280;DHT22;17097;50.916;5.344;2023-12-29T07:53:31;10.80;99.90
30280;DHT22;17097;50.916;5.344;2023-12-29T07:55:57;10.90;99.90
30280;DHT22;17097;50.916;5.344;2023-12-29T07:58:23;10.90;99.90
30280;DHT22;17097;50.916;5.344;2023-12-29T08:00:48;10.90;99.90
30280;DHT22;17097;50.916;5.344;2023-12-29T08:03:14;10.90;99.90
30280;DHT22;17097;50.916;5.344;2023-12-29T08:05:39;11.00;99.90
30280;DHT22;17097;50.916;5.344;2023-12-29T08:08:05;11.00;99.90
30280;DHT22;17097;50.916;5.344;2023-12-29T08:10:33;10.80;99.90
30280;DHT22;17097;50.916;5.344;2023-12-29T08:13:01;10.80;99.90
30280;DHT22;17097;50.916;5.344;2023-12-29T08:15:27;10.80;99.90
30280;DHT22;17097;50.916;5.344;2023-12-29T08:17:52;10.70;99.90
30280;DHT22;17097;50.916;5.344;2023-12-29T08:20:20;10.70;99.90
30280;DHT22;17097;50.916;5.344;2023-12-29T08:22:48;10.80;99.90
30280;DHT22;17097;50.916;5.344;2023-12-29T08:25:13;10.70;99.90
30280;DHT22;17097;50.916;5.344;2023-12-29T08:27:41;10.70;99.90
30280;DHT22;17097;50.916;5.344;2023-12-29T08:30:07;10.70;99.90
30280;DHT22;17097;50.916;5.344;2023-12-29T08:32:33;10.60;99.90
30280;DHT22;17097;50.916;5.344;2023-12-29T08:34:59;10.70;99.90
30280;DHT22;17097;50.916;5.344;2023-12-29T08:37:24;10.70;99.90
30280;DHT22;17097;50.916;5.344;2023-12-29T08:39:53;10.80;99.90
30280;DHT22;17097;50.916;5.344;2023-12-29T08:42:21;10.90;99.90
30280;DHT22;17097;50.916;5.344;2023-12-29T08:44:47;10.90;99.90
30280;DHT22;17097;50.916;5.344;2023-12-29T08:47:13;10.70;99.90
30280;DHT22;17097;50.916;5.344;2023-12-29T08:49:39;10.70;99.90
30280;DHT22;17097;50.916;5.344;2023-12-29T08:52:06;10.70;99.90
30280;DHT22;17097;50.916;5.344;2023-12-29T08:54:33;10.80;99.90
30280;DHT22;17097;50.916;5.344;2023-12-29T08:57:01;10.80;99.90
30280;DHT22;17097;50.916;5.344;2023-12-29T08:59:29;10.90;99.90
30280;DHT22;17097;50.916;5.344;2023-12-29T09:01:57;10.90;99.90
30280;DHT22;17097;50.916;5.344;2023-12-29T09:04:23;10.90;99.90
30280;DHT22;17097;50.916;5.344;2023-12-29T09:06:51;10.90;99.90
30280;DHT22;17097;50.916;5.344;2023-12-29T09:09:19;10.90;99.90
30280;DHT22;17097;50.916;5.344;2023-12-29T09:11:45;10.80;99.90
30280;DHT22;17097;50.916;5.344;2023-12-29T09:14:12;10.90;99.90
30280;DHT22;17097;50.916;5.344;2023-12-29T09:16:41;11.00;99.90
30280;DHT22;17097;50.916;5.344;2023-12-29T09:19:12;11.00;99.90
30280;DHT22;17097;50.916;5.344;2023-12-29T09:21:40;11.10;99.90
30280;DHT22;17097;50.916;5.344;2023-12-29T09:24:05;11.00;99.90
30280;DHT22;17097;50.916;5.344;2023-12-29T09:26:31;11.00;99.90
30280;DHT22;17097;50.916;5.344;2023-12-29T09:28:57;11.00;99.90
30280;DHT22;17097;50.916;5.344;2023-12-29T09:31:22;11.10;99.90
30280;DHT22;17097;50.916;5.344;2023-12-29T09:33:50;11.20;99.90
30280;DHT22;17097;50.916;5.344;2023-12-29T09:36:18;11.20;99.90
30280;DHT22;17097;50.916;5.344;2023-12-29T09:38:46;11.20;99.90
30280;DHT22;17097;50.916;5.344;2023-12-29T09:41:14;11.30;99.90
30280;DHT22;17097;50.916;5.344;2023-12-29T09:43:40;11.30;99.90
30280;DHT22;17097;50.916;5.344;2023-12-29T09:46:07;11.40;99.90
30280;DHT22;17097;50.916;5.344;2023-12-29T09:48:34;11.40;99.90
30280;DHT22;17097;50.916;5.344;2023-12-29T09:51:03;11.40;99.90
30280;DHT22;17097;50.916;5.344;2023-12-29T09:53:34;11.50;99.90
30280;DHT22;17097;50.916;5.344;2023-12-29T09:56:04;11.50;99.90
30280;DHT22;17097;50.916;5.344;2023-12-29T09:58:31;11.60;99.90
30280;DHT22;17097;50.916;5.344;2023-12-29T10:00:59;11.60;99.90
30280;DHT22;17097;50.916;5.344;2023-12-29T10:03:26;11.50;99.90
30280;DHT22;17097;50.916;5.344;2023-12-29T10:05:54;11.50;99.90
30280;DHT22;17097;50.916;5.344;2023-12-29T10:08:22;11.60;99.90
30280;DHT22;17097;50.916;5.344;2023-12-29T10:10:54;11.60;99.90
30280;DHT22;17097;50.916;5.344;2023-12-29T10:13:21;11.60;99.90
30280;DHT22;17097;50.916;5.344;2023-12-29T10:15:53;11.50;99.90
30280;DHT22;17097;50.916;5.344;2023-12-29T10:26:14;11.70;99.90
30280;DHT22;17097;50.916;5.344;2023-12-29T10:28:40;11.70;99.90
30280;DHT22;17097;50.916;5.344;2023-12-29T10:31:06;11.80;99.90
30280;DHT22;17097;50.916;5.344;2023-12-29T10:33:35;11.90;99.90
30280;DHT22;17097;50.916;5.344;2023-12-29T10:36:04;12.00;99.90
30280;DHT22;17097;50.916;5.344;2023-12-29T10:38:32;12.00;99.90
30280;DHT22;17097;50.916;5.344;2023-12-29T10:41:14;12.00;99.90
30280;DHT22;17097;50.916;5.344;2023-12-29T10:43:41;12.10;99.90
30280;DHT22;17097;50.916;5.344;2023-12-29T10:46:08;12.10;99.90
30280;DHT22;17097;50.916;5.344;2023-12-29T10:48:34;12.10;99.90
30280;DHT22;17097;50.916;5.344;2023-12-29T10:51:00;12.20;99.90
30280;DHT22;17097;50.916;5.344;2023-12-29T10:53:33;12.20;99.90
30280;DHT22;17097;50.916;5.344;2023-12-29T10:55:59;12.10;99.90
30280;DHT22;17097;50.916;5.344;2023-12-29T10:58:29;12.20;99.90
30280;DHT22;17097;50.916;5.344;2023-12-29T11:00:59;12.10;99.90
30280;DHT22;17097;50.916;5.344;2023-12-29T11:03:27;11.90;99.90
30280;DHT22;17097;50.916;5.344;2023-12-29T11:05:59;11.90;99.90
30280;DHT22;17097;50.916;5.344;2023-12-29T11:08:29;11.90;99.90
30280;DHT22;17097;50.916;5.344;2023-12-29T11:11:00;11.90;99.90
30280;DHT22;17097;50.916;5.344;2023-12-29T11:13:26;11.90;99.90
30280;DHT22;17097;50.916;5.344;2023-12-29T11:15:54;12.00;99.90
30280;DHT22;17097;50.916;5.344;2023-12-29T11:18:21;11.90;99.90
30280;DHT22;17097;50.916;5.344;2023-12-29T11:20:47;12.00;99.90
30280;DHT22;17097;50.916;5.344;2023-12-29T11:23:13;12.00;99.90
30280;DHT22;17097;50.916;5.344;2023-12-29T11:25:43;11.80;99.90
30280;DHT22;17097;50.916;5.344;2023-12-29T11:28:11;11.80;99.90
30280;DHT22;17097;50.916;5.344;2023-12-29T11:30:41;11.80;99.90
30280;DHT22;17097;50.916;5.344;2023-12-29T11:33:28;12.00;99.90
30280;DHT22;17097;50.916;5.344;2023-12-29T11:36:17;12.00;99.90
30280;DHT22;17097;50.916;5.344;2023-12-29T11:39:19;11.90;99.90
30280;DHT22;17097;50.916;5.344;2023-12-29T11:42:02;11.80;99.90
30280;DHT22;17097;50.916;5.344;2023-12-29T11:44:29;11.60;99.90
30280;DHT22;17097;50.916;5.344;2023-12-29T11:46:58;11.70;99.90
30280;DHT22;17097;50.916;5.344;2023-12-29T11:49:25;11.60;99.90
30280;DHT22;17097;50.916;5.344;2023-12-29T11:51:51;11.70;99.90
30280;DHT22;17097;50.916;5.344;2023-12-29T11:54:27;11.70;99.90
30280;DHT22;17097;50.916;5.344;2023-12-29T11:56:55;11.60;99.90
30280;DHT22;17097;50.916;5.344;2023-12-29T11:59:23;11.80;99.90
30280;DHT22;17097;50.916;5.344;2023-12-29T12:01:57;11.80;99.90
30280;DHT22;17097;50.916;5.344;2023-12-29T12:04:42;11.80;99.90
30280;DHT22;17097;50.916;5.344;2023-12-29T12:07:17;11.90;99.90
30280;DHT22;17097;50.916;5.344;2023-12-29T12:12:47;12.00;99.90
30280;DHT22;17097;50.916;5.344;2023-12-29T12:18:01;11.90;99.90
30280;DHT22;17097;50.916;5.344;2023-12-29T12:20:34;12.00;99.90
30280;DHT22;17097;50.916;5.344;2023-12-29T12:23:11;11.80;99.90
30280;DHT22;17097;50.916;5.344;2023-12-29T12:25:39;12.00;99.90
30280;DHT22;17097;50.916;5.344;2023-12-29T12:28:06;11.90;99.90
30280;DHT22;17097;50.916;5.344;2023-12-29T12:30:33;12.10;99.90
30280;DHT22;17097;50.916;5.344;2023-12-29T12:33:06;12.10;99.90
30280;DHT22;17097;50.916;5.344;2023-12-29T12:35:36;12.00;99.90
30280;DHT22;17097;50.916;5.344;2023-12-29T12:38:13;12.00;99.90
30280;DHT22;17097;50.916;5.344;2023-12-29T12:40:41;11.90;99.90
30280;DHT22;17097;50.916;5.344;2023-12-29T12:43:07;11.80;99.90
30280;DHT22;17097;50.916;5.344;2023-12-29T12:45:41;11.90;99.90
30280;DHT22;17097;50.916;5.344;2023-12-29T12:48:28;11.80;99.90
30280;DHT22;17097;50.916;5.344;2023-12-29T12:50:54;11.80;99.90
30280;DHT22;17097;50.916;5.344;2023-12-29T12:53:25;11.80;99.90
30280;DHT22;17097;50.916;5.344;2023-12-29T12:55:54;11.70;99.90
30280;DHT22;17097;50.916;5.344;2023-12-29T12:58:23;11.80;99.90
30280;DHT22;17097;50.916;5.344;2023-12-29T13:00:49;11.80;99.90
30280;DHT22;17097;50.916;5.344;2023-12-29T13:03:16;11.90;99.90
30280;DHT22;17097;50.916;5.344;2023-12-29T13:05:44;11.90;99.90
30280;DHT22;17097;50.916;5.344;2023-12-29T13:08:13;11.80;99.90
30280;DHT22;17097;50.916;5.344;2023-12-29T13:10:43;11.60;99.90
30280;DHT22;17097;50.916;5.344;2023-12-29T13:13:09;11.60;99.90
30280;DHT22;17097;50.916;5.344;2023-12-29T13:15:35;11.70;99.90
30280;DHT22;17097;50.916;5.344;2023-12-29T13:18:09;11.70;99.90
30280;DHT22;17097;50.916;5.344;2023-12-29T13:20:46;11.70;99.90
30280;DHT22;17097;50.916;5.344;2023-12-29T13:23:14;11.80;99.90
30280;DHT22;17097;50.916;5.344;2023-12-29T13:25:40;11.70;99.90
30280;DHT22;17097;50.916;5.344;2023-12-29T13:28:08;11.70;99.90
30280;DHT22;17097;50.916;5.344;2023-12-29T13:30:37;11.70;99.90
30280;DHT22;17097;50.916;5.344;2023-12-29T13:33:10;11.70;99.90
30280;DHT22;17097;50.916;5.344;2023-12-29T13:35:45;11.60;99.90
30280;DHT22;17097;50.916;5.344;2023-12-29T13:38:21;11.30;99.90
30280;DHT22;17097;50.916;5.344;2023-12-29T13:41:04;11.30;99.90
30280;DHT22;17097;50.916;5.344;2023-12-29T13:43:32;11.20;99.90
30280;DHT22;17097;50.916;5.344;2023-12-29T13:46:00;11.40;99.90
30280;DHT22;17097;50.916;5.344;2023-12-29T13:48:27;11.40;99.90
30280;DHT22;17097;50.916;5.344;2023-12-29T13:50:53;11.30;99.90
30280;DHT22;17097;50.916;5.344;2023-12-29T13:53:19;11.30;99.90
30280;DHT22;17097;50.916;5.344;2023-12-29T13:55:47;11.30;99.90
30280;DHT22;17097;50.916;5.344;2023-12-29T13:58:15;11.20;99.90
30280;DHT22;17097;50.916;5.344;2023-12-29T14:00:42;11.40;99.90
30280;DHT22;17097;50.916;5.344;2023-12-29T14:03:32;11.50;99.90
30280;DHT22;17097;50.916;5.344;2023-12-29T14:06:04;11.40;99.90
30280;DHT22;17097;50.916;5.344;2023-12-29T14:08:33;11.30;99.90
30280;DHT22;17097;50.916;5.344;2023-12-29T14:11:00;11.40;99.90
30280;DHT22;17097;50.916;5.344;2023-12-29T14:13:28;11.50;99.90
30280;DHT22;17097;50.916;5.344;2023-12-29T14:15:54;11.60;99.90
30280;DHT22;17097;50.916;5.344;2023-12-29T14:20:59;11.50;99.90
30280;DHT22;17097;50.916;5.344;2023-12-29T14:23:25;11.40;99.90
30280;DHT22;17097;50.916;5.344;2023-12-29T14:25:51;11.40;99.90
30280;DHT22;17097;50.916;5.344;2023-12-29T14:28:18;11.50;99.90
30280;DHT22;17097;50.916;5.344;2023-12-29T14:30:44;11.50;99.90
30280;DHT22;17097;50.916;5.344;2023-12-29T14:33:12;11.60;99.90
30280;DHT22;17097;50.916;5.344;2023-12-29T14:35:38;11.50;99.90
30280;DHT22;17097;50.916;5.344;2023-12-29T14:38:04;11.50;99.90
30280;DHT22;17097;50.916;5.344;2023-12-29T14:40:32;11.50;99.90
30280;DHT22;17097;50.916;5.344;2023-12-29T14:43:04;11.60;99.90
30280;DHT22;17097;50.916;5.344;2023-12-29T14:45:29;11.60;99.90
30280;DHT22;17097;50.916;5.344;2023-12-29T14:48:00;11.70;99.90
30280;DHT22;17097;50.916;5.344;2023-12-29T14:50:26;11.70;99.90
30280;DHT22;17097;50.916;5.344;2023-12-29T14:52:57;11.60;99.90
30280;DHT22;17097;50.916;5.344;2023-12-29T14:55:25;11.60;99.90
30280;DHT22;17097;50.916;5.344;2023-12-29T14:57:51;11.70;99.90
30280;DHT22;17097;50.916;5.344;2023-12-29T15:00:17;11.60;99.90
30280;DHT22;17097;50.916;5.344;2023-12-29T15:02:45;11.70;99.90
30280;DHT22;17097;50.916;5.344;2023-12-29T15:05:11;11.60;99.90
30280;DHT22;17097;50.916;5.344;2023-12-29T15:07:36;11.60;99.90
30280;DHT22;17097;50.916;5.344;2023-12-29T15:10:02;11.60;99.90
30280;DHT22;17097;50.916;5.344;2023-12-29T15:12:30;11.60;99.90
30280;DHT22;17097;50.916;5.344;2023-12-29T15:14:58;11.50;99.90
30280;DHT22;17097;50.916;5.344;2023-12-29T15:17:24;11.70;99.90
30280;DHT22;17097;50.916;5.344;2023-12-29T15:19:49;11.50;99.90
30280;DHT22;17097;50.916;5.344;2023-12-29T15:22:20;11.60;99.90
30280;DHT22;17097;50.916;5.344;2023-12-29T15:24:47;11.50;99.90
30280;DHT22;17097;50.916;5.344;2023-12-29T15:27:12;11.50;99.90
30280;DHT22;17097;50.916;5.344;2023-12-29T15:29:40;11.40;99.90
30280;DHT22;17097;50.916;5.344;2023-12-29T15:32:06;11.40;99.90
30280;DHT22;17097;50.916;5.344;2023-12-29T15:34:32;11.40;99.90
30280;DHT22;17097;50.916;5.344;2023-12-29T15:37:00;11.40;99.90
30280;DHT22;17097;50.916;5.344;2023-12-29T15:39:30;11.40;99.90
30280;DHT22;17097;50.916;5.344;2023-12-29T15:41:58;11.40;99.90
30280;DHT22;17097;50.916;5.344;2023-12-29T15:44:24;11.40;99.90
30280;DHT22;17097;50.916;5.344;2023-12-29T15:46:49;11.40;99.90
30280;DHT22;17097;50.916;5.344;2023-12-29T15:49:17;11.50;99.90